sensor_id;sensor_type;location;lat;lon;timestamp;P1;durP1;ratioP1;P2;durP2;ratioP2
42196;SDS011;27866;48.146;17.098;2022-08-21T00:03:16;2.55;;;2.10;;
42196;SDS011;27866;48.146;17.098;2022-08-21T00:07:27;3.05;;;1.95;;
42196;SDS011;27866;48.146;17.098;2022-08-21T00:11:39;4.93;;;2.20;;
42196;SDS011;27866;48.146;17.098;2022-08-21T00:15:50;3.05;;;2.25;;
42196;SDS011;27866;48.146;17.098;2022-08-21T00:20:03;4.03;;;2.60;;
42196;SDS011;27866;48.146;17.098;2022-08-21T00:24:17;4.00;;;2.13;;
42196;SDS011;27866;48.146;17.098;2022-08-21T00:28:29;4.40;;;2.50;;
42196;SDS011;27866;48.146;17.098;2022-08-21T00:32:41;3.17;;;2.30;;
42196;SDS011;27866;48.146;17.098;2022-08-21T00:36:52;3.72;;;2.22;;
42196;SDS011;27866;48.146;17.098;2022-08-21T00:41:04;3.47;;;2.30;;
42196;SDS011;27866;48.146;17.098;2022-08-21T00:45:17;3.85;;;2.10;;
42196;SDS011;27866;48.146;17.098;2022-08-21T00:49:28;2.58;;;2.17;;
42196;SDS011;27866;48.146;17.098;2022-08-21T00:53:40;5.50;;;2.10;;
42196;SDS011;27866;48.146;17.098;2022-08-21T00:57:55;2.70;;;2.10;;
42196;SDS011;27866;48.146;17.098;2022-08-21T01:02:08;2.20;;;1.80;;
42196;SDS011;27866;48.146;17.098;2022-08-21T01:06:20;2.58;;;1.85;;
42196;SDS011;27866;48.146;17.098;2022-08-21T01:10:32;2.50;;;2.00;;
42196;SDS011;27866;48.146;17.098;2022-08-21T01:14:44;2.42;;;2.15;;
42196;SDS011;27866;48.146;17.098;2022-08-21T01:18:55;2.97;;;2.30;;
42196;SDS011;27866;48.146;17.098;2022-08-21T01:23:07;2.75;;;2.30;;
42196;SDS011;27866;48.146;17.098;2022-08-21T01:27:18;3.25;;;2.15;;
42196;SDS011;27866;48.146;17.098;2022-08-21T01:31:29;2.55;;;2.13;;
42196;SDS011;27866;48.146;17.098;2022-08-21T01:35:43;2.25;;;2.00;;
42196;SDS011;27866;48.146;17.098;2022-08-21T01:39:54;2.72;;;2.25;;
42196;SDS011;27866;48.146;17.098;2022-08-21T01:44:06;2.70;;;2.20;;
42196;SDS011;27866;48.146;17.098;2022-08-21T01:48:17;3.10;;;2.30;;
42196;SDS011;27866;48.146;17.098;2022-08-21T01:52:29;2.78;;;1.90;;
42196;SDS011;27866;48.146;17.098;2022-08-21T01:56:41;3.90;;;2.10;;
42196;SDS011;27866;48.146;17.098;2022-08-21T02:00:54;3.58;;;2.00;;
42196;SDS011;27866;48.146;17.098;2022-08-21T02:05:07;2.63;;;2.22;;
42196;SDS011;27866;48.146;17.098;2022-08-21T02:09:19;3.17;;;2.27;;
42196;SDS011;27866;48.146;17.098;2022-08-21T02:13:32;2.67;;;2.00;;
42196;SDS011;27866;48.146;17.098;2022-08-21T02:17:44;2.90;;;2.20;;
42196;SDS011;27866;48.146;17.098;2022-08-21T02:21:57;1.90;;;1.70;;
42196;SDS011;27866;48.146;17.098;2022-08-21T02:26:09;4.68;;;2.22;;
42196;SDS011;27866;48.146;17.098;2022-08-21T02:30:22;4.35;;;2.17;;
42196;SDS011;27866;48.146;17.098;2022-08-21T02:34:36;2.40;;;2.00;;
42196;SDS011;27866;48.146;17.098;2022-08-21T02:38:47;3.55;;;2.20;;
42196;SDS011;27866;48.146;17.098;2022-08-21T02:42:59;3.83;;;2.13;;
42196;SDS011;27866;48.146;17.098;2022-08-21T02:47:10;4.07;;;2.10;;
42196;SDS011;27866;48.146;17.098;2022-08-21T02:51:22;3.65;;;2.00;;
42196;SDS011;27866;48.146;17.098;2022-08-21T02:55:34;2.38;;;2.17;;
42196;SDS011;27866;48.146;17.098;2022-08-21T02:59:47;2.38;;;2.00;;
42196;SDS011;27866;48.146;17.098;2022-08-21T03:03:58;4.80;;;2.20;;
42196;SDS011;27866;48.146;17.098;2022-08-21T03:08:10;3.60;;;2.70;;
42196;SDS011;27866;48.146;17.098;2022-08-21T03:12:23;2.47;;;2.13;;
42196;SDS011;27866;48.146;17.098;2022-08-21T03:16:35;3.65;;;2.60;;
42196;SDS011;27866;48.146;17.098;2022-08-21T03:20:46;3.33;;;2.67;;
42196;SDS011;27866;48.146;17.098;2022-08-21T03:24:57;4.78;;;2.63;;
42196;SDS011;27866;48.146;17.098;2022-08-21T03:29:09;3.63;;;2.70;;
42196;SDS011;27866;48.146;17.098;2022-08-21T03:33:21;3.45;;;2.50;;
42196;SDS011;27866;48.146;17.098;2022-08-21T03:37:32;2.83;;;2.53;;
42196;SDS011;27866;48.146;17.098;2022-08-21T03:41:44;3.28;;;2.40;;
42196;SDS011;27866;48.146;17.098;2022-08-21T03:45:55;4.15;;;2.45;;
42196;SDS011;27866;48.146;17.098;2022-08-21T03:50:07;3.05;;;2.35;;
42196;SDS011;27866;48.146;17.098;2022-08-21T03:54:18;3.35;;;2.42;;
42196;SDS011;27866;48.146;17.098;2022-08-21T03:58:30;3.17;;;2.60;;
42196;SDS011;27866;48.146;17.098;2022-08-21T04:02:41;5.10;;;2.50;;
42196;SDS011;27866;48.146;17.098;2022-08-21T04:06:54;3.15;;;2.40;;
42196;SDS011;27866;48.146;17.098;2022-08-21T04:11:06;2.58;;;2.20;;
42196;SDS011;27866;48.146;17.098;2022-08-21T04:15:18;2.58;;;2.17;;
42196;SDS011;27866;48.146;17.098;2022-08-21T04:19:30;4.00;;;2.30;;
42196;SDS011;27866;48.146;17.098;2022-08-21T04:23:42;3.38;;;2.05;;
42196;SDS011;27866;48.146;17.098;2022-08-21T04:27:53;3.95;;;2.20;;
42196;SDS011;27866;48.146;17.098;2022-08-21T04:32:04;2.50;;;2.22;;
42196;SDS011;27866;48.146;17.098;2022-08-21T04:36:16;2.58;;;2.10;;
42196;SDS011;27866;48.146;17.098;2022-08-21T04:40:28;2.40;;;1.98;;
42196;SDS011;27866;48.146;17.098;2022-08-21T04:44:40;4.45;;;1.98;;
42196;SDS011;27866;48.146;17.098;2022-08-21T04:48:52;3.00;;;2.10;;
42196;SDS011;27866;48.146;17.098;2022-08-21T04:53:04;4.25;;;2.33;;
42196;SDS011;27866;48.146;17.098;2022-08-21T04:57:16;2.47;;;2.00;;
42196;SDS011;27866;48.146;17.098;2022-08-21T05:01:28;2.40;;;2.17;;
42196;SDS011;27866;48.146;17.098;2022-08-21T05:05:41;2.63;;;2.20;;
42196;SDS011;27866;48.146;17.098;2022-08-21T05:09:53;2.15;;;1.83;;
42196;SDS011;27866;48.146;17.098;2022-08-21T05:14:05;2.90;;;2.50;;
42196;SDS011;27866;48.146;17.098;2022-08-21T05:18:16;2.58;;;2.33;;
42196;SDS011;27866;48.146;17.098;2022-08-21T05:22:27;2.47;;;2.03;;
42196;SDS011;27866;48.146;17.098;2022-08-21T05:26:39;2.50;;;2.10;;
42196;SDS011;27866;48.146;17.098;2022-08-21T05:30:50;2.38;;;2.10;;
42196;SDS011;27866;48.146;17.098;2022-08-21T05:35:05;3.70;;;2.50;;
42196;SDS011;27866;48.146;17.098;2022-08-21T05:39:18;2.65;;;2.00;;
42196;SDS011;27866;48.146;17.098;2022-08-21T05:43:29;2.08;;;1.60;;
42196;SDS011;27866;48.146;17.098;2022-08-21T05:47:40;2.53;;;2.13;;
42196;SDS011;27866;48.146;17.098;2022-08-21T05:51:51;2.50;;;2.00;;
42196;SDS011;27866;48.146;17.098;2022-08-21T05:56:03;2.50;;;2.15;;
42196;SDS011;27866;48.146;17.098;2022-08-21T06:00:15;4.00;;;1.90;;
42196;SDS011;27866;48.146;17.098;2022-08-21T06:04:27;3.00;;;2.30;;
42196;SDS011;27866;48.146;17.098;2022-08-21T06:08:38;2.10;;;1.70;;
42196;SDS011;27866;48.146;17.098;2022-08-21T06:12:52;2.03;;;1.63;;
42196;SDS011;27866;48.146;17.098;2022-08-21T06:17:05;3.63;;;2.10;;
42196;SDS011;27866;48.146;17.098;2022-08-21T06:21:17;2.70;;;1.60;;
42196;SDS011;27866;48.146;17.098;2022-08-21T06:25:28;2.00;;;1.63;;
42196;SDS011;27866;48.146;17.098;2022-08-21T06:29:40;2.35;;;1.58;;
42196;SDS011;27866;48.146;17.098;2022-08-21T06:33:52;1.80;;;1.60;;
42196;SDS011;27866;48.146;17.098;2022-08-21T06:38:03;1.98;;;1.35;;
42196;SDS011;27866;48.146;17.098;2022-08-21T06:42:15;2.83;;;1.60;;
42196;SDS011;27866;48.146;17.098;2022-08-21T06:46:29;1.98;;;1.42;;
42196;SDS011;27866;48.146;17.098;2022-08-21T06:50:40;2.30;;;1.40;;
42196;SDS011;27866;48.146;17.098;2022-08-21T06:54:52;2.47;;;1.35;;
42196;SDS011;27866;48.146;17.098;2022-08-21T06:59:03;1.98;;;1.30;;
42196;SDS011;27866;48.146;17.098;2022-08-21T07:03:23;1.27;;;1.10;;
42196;SDS011;27866;48.146;17.098;2022-08-21T07:07:37;1.08;;;1.00;;
42196;SDS011;27866;48.146;17.098;2022-08-21T07:11:50;1.55;;;1.30;;
42196;SDS011;27866;48.146;17.098;2022-08-21T07:16:02;2.47;;;1.25;;
42196;SDS011;27866;48.146;17.098;2022-08-21T07:20:13;1.35;;;1.20;;
42196;SDS011;27866;48.146;17.098;2022-08-21T07:24:24;1.13;;;1.00;;
42196;SDS011;27866;48.146;17.098;2022-08-21T07:28:36;1.20;;;1.10;;
42196;SDS011;27866;48.146;17.098;2022-08-21T07:32:47;1.92;;;1.05;;
42196;SDS011;27866;48.146;17.098;2022-08-21T07:37:02;1.00;;;0.95;;
42196;SDS011;27866;48.146;17.098;2022-08-21T07:41:19;1.73;;;1.27;;
42196;SDS011;27866;48.146;17.098;2022-08-21T07:45:31;2.55;;;1.20;;
42196;SDS011;27866;48.146;17.098;2022-08-21T07:49:42;1.40;;;1.10;;
42196;SDS011;27866;48.146;17.098;2022-08-21T07:53:55;2.03;;;1.10;;
42196;SDS011;27866;48.146;17.098;2022-08-21T08:02:23;1.65;;;1.10;;
42196;SDS011;27866;48.146;17.098;2022-08-21T08:06:35;2.00;;;1.20;;
42196;SDS011;27866;48.146;17.098;2022-08-21T08:10:46;1.90;;;1.35;;
42196;SDS011;27866;48.146;17.098;2022-08-21T08:15:00;1.20;;;1.10;;
42196;SDS011;27866;48.146;17.098;2022-08-21T08:19:11;1.35;;;1.25;;
42196;SDS011;27866;48.146;17.098;2022-08-21T08:23:22;5.00;;;1.30;;
42196;SDS011;27866;48.146;17.098;2022-08-21T08:27:34;1.63;;;1.50;;
42196;SDS011;27866;48.146;17.098;2022-08-21T08:31:45;2.30;;;1.60;;
42196;SDS011;27866;48.146;17.098;2022-08-21T08:35:56;1.73;;;1.45;;
42196;SDS011;27866;48.146;17.098;2022-08-21T08:44:53;4.47;;;1.50;;
42196;SDS011;27866;48.146;17.098;2022-08-21T08:49:10;1.60;;;1.42;;
42196;SDS011;27866;48.146;17.098;2022-08-21T08:53:30;1.70;;;1.48;;
42196;SDS011;27866;48.146;17.098;2022-08-21T08:57:45;3.00;;;1.50;;
42196;SDS011;27866;48.146;17.098;2022-08-21T09:28:34;4.35;;;1.80;;
42196;SDS011;27866;48.146;17.098;2022-08-21T09:32:46;3.05;;;1.98;;
42196;SDS011;27866;48.146;17.098;2022-08-21T09:36:57;3.00;;;2.00;;
42196;SDS011;27866;48.146;17.098;2022-08-21T09:41:09;3.15;;;2.10;;
42196;SDS011;27866;48.146;17.098;2022-08-21T09:45:21;2.78;;;2.30;;
42196;SDS011;27866;48.146;17.098;2022-08-21T09:49:34;2.58;;;1.88;;
42196;SDS011;27866;48.146;17.098;2022-08-21T09:53:55;2.25;;;1.90;;
42196;SDS011;27866;48.146;17.098;2022-08-21T09:58:31;2.17;;;1.77;;
42196;SDS011;27866;48.146;17.098;2022-08-21T10:02:44;2.28;;;1.70;;
42196;SDS011;27866;48.146;17.098;2022-08-21T10:07:05;2.38;;;1.83;;
42196;SDS011;27866;48.146;17.098;2022-08-21T10:11:23;6.07;;;1.90;;
42196;SDS011;27866;48.146;17.098;2022-08-21T10:20:17;1.63;;;1.45;;
42196;SDS011;27866;48.146;17.098;2022-08-21T10:29:03;1.95;;;1.60;;
42196;SDS011;27866;48.146;17.098;2022-08-21T10:33:19;1.95;;;1.70;;
42196;SDS011;27866;48.146;17.098;2022-08-21T10:42:27;3.85;;;1.50;;
42196;SDS011;27866;48.146;17.098;2022-08-21T10:55:35;1.70;;;1.50;;
42196;SDS011;27866;48.146;17.098;2022-08-21T10:59:55;1.52;;;1.42;;
42196;SDS011;27866;48.146;17.098;2022-08-21T11:08:39;2.95;;;1.73;;
42196;SDS011;27866;48.146;17.098;2022-08-21T11:12:54;5.22;;;1.67;;
42196;SDS011;27866;48.146;17.098;2022-08-21T11:17:10;1.63;;;1.13;;
42196;SDS011;27866;48.146;17.098;2022-08-21T11:25:44;1.52;;;1.10;;
42196;SDS011;27866;48.146;17.098;2022-08-21T11:30:00;1.20;;;1.10;;
42196;SDS011;27866;48.146;17.098;2022-08-21T11:34:18;0.80;;;0.80;;
42196;SDS011;27866;48.146;17.098;2022-08-21T11:38:41;1.85;;;0.98;;
42196;SDS011;27866;48.146;17.098;2022-08-21T11:42:57;1.83;;;0.90;;
42196;SDS011;27866;48.146;17.098;2022-08-21T11:55:56;1.83;;;0.70;;
42196;SDS011;27866;48.146;17.098;2022-08-21T12:00:20;1.25;;;1.00;;
42196;SDS011;27866;48.146;17.098;2022-08-21T12:09:03;0.80;;;0.80;;
42196;SDS011;27866;48.146;17.098;2022-08-21T12:13:23;1.05;;;0.90;;
42196;SDS011;27866;48.146;17.098;2022-08-21T12:17:37;1.40;;;0.80;;
42196;SDS011;27866;48.146;17.098;2022-08-21T12:21:53;4.72;;;0.90;;
42196;SDS011;27866;48.146;17.098;2022-08-21T12:30:33;1.85;;;0.70;;
42196;SDS011;27866;48.146;17.098;2022-08-21T12:35:36;2.15;;;0.80;;
42196;SDS011;27866;48.146;17.098;2022-08-21T12:39:29;1.05;;;0.70;;
42196;SDS011;27866;48.146;17.098;2022-08-21T12:43:43;0.90;;;0.90;;
42196;SDS011;27866;48.146;17.098;2022-08-21T12:48:21;0.73;;;0.73;;
42196;SDS011;27866;48.146;17.098;2022-08-21T12:52:51;2.17;;;0.88;;
42196;SDS011;27866;48.146;17.098;2022-08-21T12:57:08;0.70;;;0.70;;
42196;SDS011;27866;48.146;17.098;2022-08-21T13:01:29;1.10;;;0.47;;
42196;SDS011;27866;48.146;17.098;2022-08-21T13:05:44;1.85;;;0.80;;
42196;SDS011;27866;48.146;17.098;2022-08-21T13:09:57;1.52;;;0.77;;
42196;SDS011;27866;48.146;17.098;2022-08-21T13:14:37;1.67;;;0.73;;
42196;SDS011;27866;48.146;17.098;2022-08-21T13:27:35;0.85;;;0.75;;
42196;SDS011;27866;48.146;17.098;2022-08-21T13:31:48;1.15;;;0.80;;
42196;SDS011;27866;48.146;17.098;2022-08-21T13:36:11;1.80;;;0.90;;
42196;SDS011;27866;48.146;17.098;2022-08-21T13:40:44;2.67;;;1.17;;
42196;SDS011;27866;48.146;17.098;2022-08-21T13:44:57;1.63;;;1.00;;
42196;SDS011;27866;48.146;17.098;2022-08-21T13:49:08;1.30;;;1.10;;
42196;SDS011;27866;48.146;17.098;2022-08-21T13:53:22;1.33;;;1.00;;
42196;SDS011;27866;48.146;17.098;2022-08-21T13:57:41;1.77;;;1.20;;
42196;SDS011;27866;48.146;17.098;2022-08-21T14:01:54;2.95;;;1.20;;
42196;SDS011;27866;48.146;17.098;2022-08-21T14:06:27;2.95;;;1.10;;
42196;SDS011;27866;48.146;17.098;2022-08-21T14:10:43;1.83;;;1.02;;
42196;SDS011;27866;48.146;17.098;2022-08-21T14:14:56;1.30;;;1.10;;
42196;SDS011;27866;48.146;17.098;2022-08-21T14:19:10;3.72;;;1.38;;
42196;SDS011;27866;48.146;17.098;2022-08-21T14:23:28;1.73;;;1.38;;
42196;SDS011;27866;48.146;17.098;2022-08-21T14:27:44;1.55;;;1.20;;
42196;SDS011;27866;48.146;17.098;2022-08-21T14:32:14;3.30;;;1.20;;
42196;SDS011;27866;48.146;17.098;2022-08-21T14:36:28;1.83;;;1.30;;
42196;SDS011;27866;48.146;17.098;2022-08-21T14:40:39;5.00;;;1.40;;
42196;SDS011;27866;48.146;17.098;2022-08-21T14:44:52;2.33;;;1.30;;
42196;SDS011;27866;48.146;17.098;2022-08-21T14:49:06;2.15;;;1.20;;
42196;SDS011;27866;48.146;17.098;2022-08-21T14:53:17;4.30;;;1.30;;
42196;SDS011;27866;48.146;17.098;2022-08-21T14:57:29;5.45;;;1.55;;
42196;SDS011;27866;48.146;17.098;2022-08-21T15:01:41;3.15;;;1.75;;
42196;SDS011;27866;48.146;17.098;2022-08-21T15:05:53;2.47;;;1.38;;
42196;SDS011;27866;48.146;17.098;2022-08-21T15:10:06;4.10;;;1.80;;
42196;SDS011;27866;48.146;17.098;2022-08-21T15:18:30;1.98;;;1.50;;
42196;SDS011;27866;48.146;17.098;2022-08-21T15:22:42;1.88;;;1.45;;
42196;SDS011;27866;48.146;17.098;2022-08-21T15:26:54;4.75;;;2.00;;
42196;SDS011;27866;48.146;17.098;2022-08-21T15:31:05;4.65;;;1.70;;
42196;SDS011;27866;48.146;17.098;2022-08-21T15:35:17;4.70;;;2.03;;
42196;SDS011;27866;48.146;17.098;2022-08-21T15:39:29;5.55;;;1.80;;
42196;SDS011;27866;48.146;17.098;2022-08-21T15:43:50;3.28;;;2.03;;
42196;SDS011;27866;48.146;17.098;2022-08-21T15:48:02;4.10;;;1.85;;
42196;SDS011;27866;48.146;17.098;2022-08-21T15:52:16;2.20;;;1.60;;
42196;SDS011;27866;48.146;17.098;2022-08-21T15:56:37;5.30;;;2.03;;
42196;SDS011;27866;48.146;17.098;2022-08-21T16:00:51;3.63;;;2.03;;
42196;SDS011;27866;48.146;17.098;2022-08-21T16:05:02;2.78;;;1.80;;
42196;SDS011;27866;48.146;17.098;2022-08-21T16:09:14;6.88;;;2.08;;
42196;SDS011;27866;48.146;17.098;2022-08-21T16:13:27;3.88;;;2.10;;
42196;SDS011;27866;48.146;17.098;2022-08-21T16:17:41;2.97;;;1.90;;
42196;SDS011;27866;48.146;17.098;2022-08-21T16:21:58;2.90;;;1.77;;
42196;SDS011;27866;48.146;17.098;2022-08-21T16:26:10;4.45;;;2.05;;
42196;SDS011;27866;48.146;17.098;2022-08-21T16:30:22;6.22;;;2.25;;
42196;SDS011;27866;48.146;17.098;2022-08-21T16:34:34;7.35;;;2.38;;
42196;SDS011;27866;48.146;17.098;2022-08-21T16:38:47;4.47;;;2.00;;
42196;SDS011;27866;48.146;17.098;2022-08-21T16:42:58;2.67;;;1.60;;
42196;SDS011;27866;48.146;17.098;2022-08-21T16:47:09;3.90;;;2.20;;
42196;SDS011;27866;48.146;17.098;2022-08-21T16:51:21;3.65;;;1.80;;
42196;SDS011;27866;48.146;17.098;2022-08-21T16:55:35;6.05;;;2.00;;
42196;SDS011;27866;48.146;17.098;2022-08-21T16:59:47;8.02;;;4.40;;
42196;SDS011;27866;48.146;17.098;2022-08-21T17:03:59;9.07;;;2.83;;
42196;SDS011;27866;48.146;17.098;2022-08-21T17:08:10;4.03;;;2.00;;
42196;SDS011;27866;48.146;17.098;2022-08-21T17:12:22;4.20;;;2.10;;
42196;SDS011;27866;48.146;17.098;2022-08-21T17:16:33;5.43;;;1.88;;
42196;SDS011;27866;48.146;17.098;2022-08-21T17:20:45;2.60;;;1.88;;
42196;SDS011;27866;48.146;17.098;2022-08-21T17:24:57;4.05;;;1.83;;
42196;SDS011;27866;48.146;17.098;2022-08-21T17:29:09;2.30;;;1.80;;
42196;SDS011;27866;48.146;17.098;2022-08-21T17:33:22;4.50;;;2.13;;
42196;SDS011;27866;48.146;17.098;2022-08-21T17:37:35;4.57;;;2.10;;
42196;SDS011;27866;48.146;17.098;2022-08-21T17:41:47;2.72;;;2.03;;
42196;SDS011;27866;48.146;17.098;2022-08-21T17:45:58;3.20;;;1.90;;
42196;SDS011;27866;48.146;17.098;2022-08-21T17:50:10;4.78;;;2.03;;
42196;SDS011;27866;48.146;17.098;2022-08-21T17:54:22;5.70;;;1.80;;
42196;SDS011;27866;48.146;17.098;2022-08-21T17:58:34;3.15;;;1.90;;
42196;SDS011;27866;48.146;17.098;2022-08-21T18:02:47;2.22;;;1.77;;
42196;SDS011;27866;48.146;17.098;2022-08-21T18:07:10;2.33;;;1.83;;
42196;SDS011;27866;48.146;17.098;2022-08-21T18:11:21;4.32;;;2.00;;
42196;SDS011;27866;48.146;17.098;2022-08-21T18:19:47;3.05;;;1.90;;
42196;SDS011;27866;48.146;17.098;2022-08-21T18:23:58;4.78;;;2.00;;
42196;SDS011;27866;48.146;17.098;2022-08-21T18:28:10;4.68;;;2.20;;
42196;SDS011;27866;48.146;17.098;2022-08-21T18:32:21;2.50;;;2.00;;
42196;SDS011;27866;48.146;17.098;2022-08-21T18:36:34;4.25;;;2.00;;
42196;SDS011;27866;48.146;17.098;2022-08-21T18:40:47;3.63;;;2.17;;
42196;SDS011;27866;48.146;17.098;2022-08-21T18:45:04;4.45;;;2.40;;
42196;SDS011;27866;48.146;17.098;2022-08-21T18:49:18;3.92;;;2.45;;
42196;SDS011;27866;48.146;17.098;2022-08-21T18:53:30;6.18;;;2.40;;
42196;SDS011;27866;48.146;17.098;2022-08-21T18:57:41;5.25;;;2.90;;
42196;SDS011;27866;48.146;17.098;2022-08-21T19:01:53;3.85;;;2.75;;
42196;SDS011;27866;48.146;17.098;2022-08-21T19:06:04;3.45;;;2.42;;
42196;SDS011;27866;48.146;17.098;2022-08-21T19:10:17;4.50;;;2.80;;
42196;SDS011;27866;48.146;17.098;2022-08-21T19:14:28;5.63;;;3.28;;
42196;SDS011;27866;48.146;17.098;2022-08-21T19:18:40;6.60;;;3.45;;
42196;SDS011;27866;48.146;17.098;2022-08-21T19:22:51;4.65;;;3.28;;
42196;SDS011;27866;48.146;17.098;2022-08-21T19:27:05;4.20;;;3.30;;
42196;SDS011;27866;48.146;17.098;2022-08-21T19:31:18;6.63;;;3.70;;
42196;SDS011;27866;48.146;17.098;2022-08-21T19:35:32;9.07;;;4.32;;
42196;SDS011;27866;48.146;17.098;2022-08-21T19:39:43;8.43;;;4.05;;
42196;SDS011;27866;48.146;17.098;2022-08-21T19:43:56;6.00;;;4.07;;
42196;SDS011;27866;48.146;17.098;2022-08-21T19:48:09;6.97;;;3.72;;
42196;SDS011;27866;48.146;17.098;2022-08-21T19:52:21;5.45;;;4.03;;
42196;SDS011;27866;48.146;17.098;2022-08-21T19:56:32;6.88;;;3.90;;
42196;SDS011;27866;48.146;17.098;2022-08-21T20:00:44;7.15;;;3.97;;
42196;SDS011;27866;48.146;17.098;2022-08-21T20:04:55;8.30;;;5.10;;
42196;SDS011;27866;48.146;17.098;2022-08-21T20:09:07;9.35;;;4.30;;
42196;SDS011;27866;48.146;17.098;2022-08-21T20:13:18;5.53;;;4.18;;
42196;SDS011;27866;48.146;17.098;2022-08-21T20:17:33;6.47;;;3.85;;
42196;SDS011;27866;48.146;17.098;2022-08-21T20:21:44;5.28;;;3.45;;
42196;SDS011;27866;48.146;17.098;2022-08-21T20:25:59;9.68;;;4.40;;
42196;SDS011;27866;48.146;17.098;2022-08-21T20:30:10;6.40;;;4.30;;
42196;SDS011;27866;48.146;17.098;2022-08-21T20:34:23;6.47;;;4.70;;
42196;SDS011;27866;48.146;17.098;2022-08-21T20:38:34;12.32;;;4.78;;
42196;SDS011;27866;48.146;17.098;2022-08-21T20:42:50;9.02;;;4.32;;
42196;SDS011;27866;48.146;17.098;2022-08-21T20:47:03;7.95;;;4.13;;
42196;SDS011;27866;48.146;17.098;2022-08-21T20:51:57;7.60;;;4.30;;
42196;SDS011;27866;48.146;17.098;2022-08-21T20:55:50;6.95;;;4.32;;
42196;SDS011;27866;48.146;17.098;2022-08-21T21:00:07;7.05;;;4.10;;
42196;SDS011;27866;48.146;17.098;2022-08-21T21:04:26;7.68;;;4.75;;
42196;SDS011;27866;48.146;17.098;2022-08-21T21:08:49;7.82;;;4.88;;
42196;SDS011;27866;48.146;17.098;2022-08-21T21:13:23;5.80;;;4.03;;
42196;SDS011;27866;48.146;17.098;2022-08-21T21:17:47;7.57;;;5.20;;
42196;SDS011;27866;48.146;17.098;2022-08-21T21:22:03;9.48;;;5.22;;
42196;SDS011;27866;48.146;17.098;2022-08-21T21:26:44;6.95;;;4.60;;
42196;SDS011;27866;48.146;17.098;2022-08-21T21:31:15;7.22;;;4.45;;
42196;SDS011;27866;48.146;17.098;2022-08-21T21:35:33;5.47;;;4.25;;
42196;SDS011;27866;48.146;17.098;2022-08-21T21:39:54;8.75;;;4.90;;
42196;SDS011;27866;48.146;17.098;2022-08-21T22:02:00;11.00;;;4.93;;
42196;SDS011;27866;48.146;17.098;2022-08-21T22:06:25;8.20;;;5.43;;
42196;SDS011;27866;48.146;17.098;2022-08-21T22:11:04;8.15;;;5.00;;
42196;SDS011;27866;48.146;17.098;2022-08-21T22:15:27;7.93;;;5.10;;
42196;SDS011;27866;48.146;17.098;2022-08-21T22:19:39;6.80;;;4.80;;
42196;SDS011;27866;48.146;17.098;2022-08-21T22:23:52;6.18;;;4.57;;
42196;SDS011;27866;48.146;17.098;2022-08-21T22:28:08;7.40;;;4.70;;
42196;SDS011;27866;48.146;17.098;2022-08-21T22:32:38;7.70;;;5.15;;
42196;SDS011;27866;48.146;17.098;2022-08-21T22:36:55;9.47;;;4.70;;
42196;SDS011;27866;48.146;17.098;2022-08-21T22:41:14;7.10;;;4.85;;
42196;SDS011;27866;48.146;17.098;2022-08-21T22:45:29;6.72;;;4.70;;
42196;SDS011;27866;48.146;17.098;2022-08-21T22:49:43;6.50;;;4.55;;
42196;SDS011;27866;48.146;17.098;2022-08-21T22:53:58;9.65;;;5.05;;
42196;SDS011;27866;48.146;17.098;2022-08-21T22:58:10;10.40;;;4.55;;
42196;SDS011;27866;48.146;17.098;2022-08-21T23:07:06;6.47;;;4.22;;
42196;SDS011;27866;48.146;17.098;2022-08-21T23:11:19;7.60;;;4.13;;
42196;SDS011;27866;48.146;17.098;2022-08-21T23:20:41;8.07;;;4.40;;
42196;SDS011;27866;48.146;17.098;2022-08-21T23:34:25;8.27;;;4.43;;
42196;SDS011;27866;48.146;17.098;2022-08-21T23:43:45;5.85;;;4.10;;
